createdAt,value
2018-01-07T00:01:28.309Z,21.36
2018-01-07T00:03:54.273Z,21.24
2018-01-07T00:06:20.256Z,21.25
2018-01-07T00:08:46.245Z,21.33
2018-01-07T00:11:12.220Z,21.31
2018-01-07T00:13:38.204Z,21.31
2018-01-07T00:16:04.204Z,21.26
2018-01-07T00:18:30.166Z,21.29
2018-01-07T00:20:56.144Z,21.26
2018-01-07T00:23:22.116Z,21.27
2018-01-07T00:25:48.071Z,21.14
2018-01-07T00:28:14.031Z,21.13
2018-01-07T00:30:40.011Z,21.18
2018-01-07T00:33:05.967Z,21.16
2018-01-07T00:35:31.946Z,21.17
2018-01-07T00:37:57.937Z,21.14
2018-01-07T00:40:23.912Z,21.13
2018-01-07T00:42:49.925Z,21.29
2018-01-07T00:45:15.889Z,21.27
2018-01-07T00:47:41.845Z,21.17
2018-01-07T00:50:07.809Z,21.16
2018-01-07T00:52:33.839Z,21.15
2018-01-07T00:54:59.855Z,21.15
2018-01-07T00:57:25.813Z,21.12
2018-01-07T00:59:51.808Z,21.12
2018-01-07T01:02:17.824Z,21.08
2018-01-07T01:04:43.816Z,21.12
2018-01-07T01:07:09.784Z,21.07
2018-01-07T01:09:35.785Z,21.05
2018-01-07T01:12:01.770Z,21.04
2018-01-07T01:14:27.737Z,21.02
2018-01-07T01:16:53.709Z,21.02
2018-01-07T01:19:19.699Z,21.01
2018-01-07T01:21:45.646Z,21.05
2018-01-07T01:24:11.629Z,21.05
2018-01-07T01:26:37.627Z,21.00
2018-01-07T01:29:03.614Z,21.01
2018-01-07T01:31:29.628Z,20.99
2018-01-07T01:33:55.602Z,20.97
2018-01-07T01:36:21.566Z,20.98
2018-01-07T01:38:47.540Z,20.91
2018-01-07T01:41:13.517Z,20.90
2018-01-07T01:43:39.483Z,20.92
2018-01-07T01:46:05.442Z,20.98
2018-01-07T01:48:31.411Z,20.99
2018-01-07T01:50:57.394Z,20.94
2018-01-07T01:53:23.404Z,20.96
2018-01-07T01:55:49.391Z,20.95
2018-01-07T01:58:15.348Z,20.94
2018-01-07T02:00:41.338Z,20.97
2018-01-07T02:03:08.445Z,20.92
2018-01-07T02:05:34.397Z,20.95
2018-01-07T02:08:00.360Z,20.96
2018-01-07T02:10:26.326Z,20.90
2018-01-07T02:12:52.273Z,20.93
2018-01-07T02:15:18.275Z,20.89
2018-01-07T02:17:44.235Z,20.86
2018-01-07T02:20:10.228Z,20.90
2018-01-07T02:22:36.206Z,20.88
2018-01-07T02:25:02.313Z,20.85
2018-01-07T02:27:28.269Z,20.86
2018-01-07T02:29:54.219Z,20.80
2018-01-07T02:32:20.176Z,20.82
2018-01-07T02:34:46.138Z,20.88
2018-01-07T02:37:12.103Z,20.85
2018-01-07T02:39:38.099Z,20.89
2018-01-07T02:42:04.083Z,20.86
2018-01-07T02:44:30.053Z,20.88
2018-01-07T02:46:56.045Z,20.80
2018-01-07T02:49:22.015Z,20.83
2018-01-07T02:51:47.961Z,20.84
2018-01-07T02:54:13.942Z,20.78
2018-01-07T02:56:39.902Z,20.75
2018-01-07T02:59:05.864Z,20.84
2018-01-07T03:01:31.828Z,20.80
2018-01-07T03:03:57.847Z,20.75
2018-01-07T03:06:23.798Z,20.82
2018-01-07T03:08:49.786Z,20.87
2018-01-07T03:11:15.784Z,21.11
2018-01-07T03:13:41.786Z,20.90
2018-01-07T03:16:07.742Z,20.93
2018-01-07T03:18:33.759Z,20.87
2018-01-07T03:20:59.740Z,20.86
2018-01-07T03:23:25.724Z,20.94
2018-01-07T03:25:51.700Z,21.04
2018-01-07T03:28:17.679Z,20.92
2018-01-07T03:30:43.643Z,20.87
2018-01-07T03:33:09.609Z,20.84
2018-01-07T03:35:35.593Z,20.83
2018-01-07T03:38:01.599Z,20.87
2018-01-07T03:40:27.562Z,20.84
2018-01-07T03:42:53.600Z,20.80
2018-01-07T03:45:19.552Z,20.78
2018-01-07T03:47:45.525Z,20.78
2018-01-07T03:50:11.518Z,20.79
2018-01-07T03:52:37.473Z,20.75
2018-01-07T03:55:03.467Z,20.84
2018-01-07T03:57:29.414Z,20.85
2018-01-07T03:59:55.363Z,20.97
2018-01-07T04:02:21.348Z,20.92
2018-01-07T04:04:47.310Z,20.91
2018-01-07T04:07:13.294Z,20.81
2018-01-07T04:09:39.250Z,20.77
2018-01-07T04:12:05.219Z,20.87
2018-01-07T04:14:31.192Z,20.78
2018-01-07T04:16:57.149Z,20.78
2018-01-07T04:19:23.134Z,20.70
2018-01-07T04:21:49.125Z,20.68
2018-01-07T04:24:15.086Z,20.69
2018-01-07T04:26:41.065Z,20.72
2018-01-07T04:29:07.030Z,20.65
2018-01-07T04:31:32.990Z,20.66
2018-01-07T04:33:58.938Z,20.70
2018-01-07T04:36:24.919Z,20.67
2018-01-07T04:38:50.861Z,20.64
2018-01-07T04:41:16.853Z,20.69
2018-01-07T04:43:42.833Z,20.71
2018-01-07T04:46:08.822Z,20.75
2018-01-07T04:48:34.779Z,20.77
2018-01-07T04:51:00.766Z,20.82
2018-01-07T04:53:26.727Z,20.81
2018-01-07T04:55:52.694Z,20.70
2018-01-07T04:58:18.659Z,20.81
2018-01-07T05:00:44.630Z,20.72
2018-01-07T05:03:10.619Z,20.66
2018-01-07T05:05:36.580Z,20.74
2018-01-07T05:08:02.582Z,20.69
2018-01-07T05:10:28.586Z,20.62
2018-01-07T05:12:54.557Z,20.63
2018-01-07T05:15:20.548Z,20.64
2018-01-07T05:17:46.547Z,20.62
2018-01-07T05:20:12.501Z,20.57
2018-01-07T05:22:38.466Z,20.63
2018-01-07T05:25:04.423Z,20.63
2018-01-07T05:27:30.392Z,20.60
2018-01-07T05:29:56.348Z,20.54
2018-01-07T05:32:22.357Z,20.67
2018-01-07T05:34:48.307Z,20.79
2018-01-07T05:37:14.267Z,20.78
2018-01-07T05:39:40.214Z,20.71
2018-01-07T05:42:06.175Z,20.65
2018-01-07T05:44:32.163Z,20.68
2018-01-07T05:46:58.129Z,20.64
2018-01-07T05:49:24.094Z,20.58
2018-01-07T05:51:50.058Z,20.60
2018-01-07T05:54:16.046Z,20.55
2018-01-07T05:56:42.062Z,20.55
2018-01-07T05:59:08.059Z,20.56
2018-01-07T06:01:34.045Z,20.54
2018-01-07T06:04:00.018Z,20.53
2018-01-07T06:06:25.978Z,20.51
2018-01-07T06:08:51.939Z,20.51
2018-01-07T06:11:17.908Z,20.50
2018-01-07T06:13:43.861Z,20.47
2018-01-07T06:16:09.822Z,20.47
2018-01-07T06:18:35.789Z,20.50
2018-01-07T06:21:01.749Z,20.59
2018-01-07T06:23:27.814Z,20.68
2018-01-07T06:25:53.774Z,20.76
2018-01-07T06:28:19.746Z,20.92
2018-01-07T06:30:45.695Z,20.94
2018-01-07T06:33:11.667Z,21.04
2018-01-07T06:35:37.616Z,21.07
2018-01-07T06:38:03.604Z,21.06
2018-01-07T06:40:29.579Z,21.00
2018-01-07T06:42:55.548Z,21.03
2018-01-07T06:45:21.526Z,21.03
2018-01-07T06:47:47.513Z,21.14
2018-01-07T06:50:13.494Z,21.14
2018-01-07T06:52:39.488Z,21.08
2018-01-07T06:55:05.443Z,21.09
2018-01-07T06:57:31.427Z,21.15
2018-01-07T06:59:57.492Z,21.14
2018-01-07T07:02:23.443Z,21.19
2018-01-07T07:04:49.396Z,21.31
2018-01-07T07:07:15.347Z,21.25
2018-01-07T07:09:41.343Z,21.25
2018-01-07T07:12:07.315Z,21.39
2018-01-07T07:14:33.296Z,21.38
2018-01-07T07:16:59.290Z,21.35
2018-01-07T07:19:25.252Z,21.35
2018-01-07T07:21:51.232Z,21.43
2018-01-07T07:24:17.232Z,21.37
2018-01-07T07:26:43.203Z,21.28
2018-01-07T07:29:09.180Z,21.28
2018-01-07T07:31:35.159Z,21.18
2018-01-07T07:34:01.127Z,21.20
2018-01-07T07:36:27.082Z,21.21
2018-01-07T07:38:53.065Z,21.24
2018-01-07T07:41:19.033Z,21.23
2018-01-07T07:43:45.000Z,21.24
2018-01-07T07:46:10.993Z,21.20
2018-01-07T07:48:36.936Z,21.25
2018-01-07T07:51:02.913Z,21.27
2018-01-07T07:53:28.888Z,21.28
2018-01-07T07:55:54.863Z,21.17
2018-01-07T07:58:20.834Z,21.25
2018-01-07T08:00:46.804Z,21.33
2018-01-07T08:03:12.795Z,21.45
2018-01-07T08:05:38.791Z,21.41
2018-01-07T08:08:04.737Z,21.43
2018-01-07T08:10:30.696Z,21.39
2018-01-07T08:12:56.660Z,21.33
2018-01-07T08:15:22.645Z,21.34
2018-01-07T08:17:48.600Z,21.26
2018-01-07T08:20:14.595Z,21.30
2018-01-07T08:22:40.573Z,21.29
2018-01-07T08:25:06.546Z,21.30
2018-01-07T08:27:35.962Z,21.27
2018-01-07T08:30:01.940Z,21.21
2018-01-07T08:32:27.963Z,21.27
2018-01-07T08:34:53.954Z,21.37
2018-01-07T08:37:19.966Z,21.28
2018-01-07T08:39:45.960Z,21.25
2018-01-07T08:42:11.964Z,21.30
2018-01-07T08:44:38.712Z,21.33
2018-01-07T08:47:04.655Z,21.34
2018-01-07T08:49:30.622Z,21.35
2018-01-07T08:51:56.580Z,21.40
2018-01-07T08:54:22.574Z,21.42
2018-01-07T08:56:48.551Z,21.34
2018-01-07T08:59:14.532Z,21.36
2018-01-07T09:01:40.514Z,21.34
2018-01-07T09:04:06.515Z,21.38
2018-01-07T09:06:32.508Z,21.36
2018-01-07T09:09:02.989Z,21.39
2018-01-07T09:11:28.986Z,21.36
2018-01-07T09:13:54.962Z,21.27
2018-01-07T09:16:20.955Z,21.30
2018-01-07T09:18:48.010Z,21.24
2018-01-07T09:21:14.048Z,21.30
2018-01-07T09:23:40.024Z,21.39
2018-01-07T09:26:05.996Z,21.31
2018-01-07T09:28:31.995Z,21.39
2018-01-07T09:30:57.958Z,21.35
2018-01-07T09:33:23.966Z,21.36
2018-01-07T09:35:49.928Z,21.39
2018-01-07T09:38:15.925Z,21.35
2018-01-07T09:40:41.908Z,21.49
2018-01-07T09:43:07.861Z,21.46
2018-01-07T09:45:33.823Z,21.46
2018-01-07T09:47:59.775Z,21.42
2018-01-07T09:50:25.748Z,21.48
2018-01-07T09:52:51.744Z,21.42
2018-01-07T09:55:17.711Z,21.34
2018-01-07T09:57:43.673Z,21.33
2018-01-07T10:00:09.649Z,21.31
2018-01-07T10:02:35.829Z,21.27
2018-01-07T10:05:01.819Z,21.30
2018-01-07T10:07:27.813Z,21.30
2018-01-07T10:09:53.814Z,21.33
2018-01-07T10:12:19.788Z,21.29
2018-01-07T10:14:45.880Z,21.35
2018-01-07T10:17:11.957Z,21.38
2018-01-07T10:19:37.969Z,21.35
2018-01-07T10:22:03.998Z,21.17
2018-01-07T10:24:29.951Z,21.17
2018-01-07T10:26:55.958Z,21.10
2018-01-07T10:29:21.924Z,21.40
2018-01-07T10:31:47.916Z,21.32
2018-01-07T10:34:14.027Z,21.30
2018-01-07T10:36:40.015Z,21.33
2018-01-07T10:39:05.993Z,21.33
2018-01-07T10:41:32.006Z,21.34
2018-01-07T10:43:57.990Z,21.31
2018-01-07T10:46:23.944Z,21.36
2018-01-07T10:48:49.953Z,21.29
2018-01-07T10:51:15.941Z,21.34
2018-01-07T10:53:41.910Z,21.38
2018-01-07T10:56:07.895Z,21.35
2018-01-07T10:58:33.899Z,21.38
2018-01-07T11:00:59.888Z,21.44
2018-01-07T11:03:25.927Z,21.44
2018-01-07T11:05:51.988Z,21.39
2018-01-07T11:08:17.928Z,21.37
2018-01-07T11:10:43.922Z,21.28
2018-01-07T11:13:09.882Z,21.33
2018-01-07T11:15:35.840Z,21.39
2018-01-07T11:18:01.800Z,21.37
2018-01-07T11:20:27.805Z,21.37
2018-01-07T11:22:53.749Z,21.51
2018-01-07T11:25:19.735Z,21.38
2018-01-07T11:27:45.716Z,21.37
2018-01-07T11:30:11.751Z,21.39
2018-01-07T11:32:37.713Z,21.31
2018-01-07T11:35:03.660Z,21.33
2018-01-07T11:37:29.746Z,21.33
2018-01-07T11:39:55.724Z,21.38
2018-01-07T11:42:21.683Z,21.34
2018-01-07T11:44:47.668Z,21.35
2018-01-07T11:47:13.635Z,21.34
2018-01-07T11:49:39.612Z,21.37
2018-01-07T11:52:05.563Z,21.43
2018-01-07T11:54:31.527Z,21.31
2018-01-07T11:56:57.526Z,21.32
2018-01-07T11:59:24.520Z,21.30
2018-01-07T12:01:50.562Z,21.42
2018-01-07T12:04:16.507Z,21.45
2018-01-07T12:06:42.600Z,21.48
2018-01-07T12:09:09.638Z,21.44
2018-01-07T12:11:35.691Z,21.39
2018-01-07T12:14:01.650Z,21.47
2018-01-07T12:16:27.607Z,21.46
2018-01-07T12:18:53.603Z,21.33
2018-01-07T12:21:19.687Z,21.30
2018-01-07T12:23:45.673Z,21.31
2018-01-07T12:26:11.714Z,21.36
2018-01-07T12:28:37.736Z,21.41
2018-01-07T12:31:03.720Z,21.34
2018-01-07T12:33:29.747Z,21.31
2018-01-07T12:35:55.708Z,21.41
2018-01-07T12:38:21.701Z,21.37
2018-01-07T12:40:47.654Z,21.36
2018-01-07T12:43:13.648Z,21.33
2018-01-07T12:45:41.649Z,21.34
2018-01-07T12:48:07.622Z,21.34
2018-01-07T12:50:33.590Z,21.22
2018-01-07T12:52:59.549Z,21.44
2018-01-07T12:55:25.553Z,21.42
2018-01-07T12:57:55.352Z,21.48
2018-01-07T13:00:21.346Z,21.50
2018-01-07T13:02:47.332Z,21.43
2018-01-07T13:05:13.290Z,21.34
2018-01-07T13:07:41.324Z,21.39
2018-01-07T13:10:09.132Z,21.38
2018-01-07T13:12:38.694Z,21.33
2018-01-07T13:15:04.765Z,21.36
2018-01-07T13:17:30.729Z,21.44
2018-01-07T13:19:58.722Z,21.47
2018-01-07T13:22:24.725Z,21.39
2018-01-07T13:24:50.688Z,21.41
2018-01-07T13:27:16.651Z,21.46
2018-01-07T13:29:42.792Z,21.59
2018-01-07T13:32:08.808Z,21.56
2018-01-07T13:34:35.357Z,21.43
2018-01-07T13:37:01.345Z,21.39
2018-01-07T13:39:27.304Z,21.53
2018-01-07T13:41:53.247Z,21.54
2018-01-07T13:44:19.336Z,21.49
2018-01-07T13:46:45.342Z,21.58
2018-01-07T13:49:11.444Z,21.62
2018-01-07T13:51:37.864Z,21.59
2018-01-07T13:54:03.848Z,21.61
2018-01-07T13:56:29.833Z,21.60
2018-01-07T13:58:55.802Z,21.57
2018-01-07T14:01:21.810Z,21.51
2018-01-07T14:03:47.784Z,21.52
2018-01-07T14:06:13.887Z,21.45
2018-01-07T14:08:39.918Z,21.41
2018-01-07T14:11:05.911Z,21.50
2018-01-07T14:13:31.917Z,21.45
2018-01-07T14:15:58.108Z,21.39
2018-01-07T14:18:24.126Z,21.50
2018-01-07T14:20:50.162Z,21.51
2018-01-07T14:23:16.133Z,21.47
2018-01-07T14:25:42.126Z,21.46
2018-01-07T14:28:08.083Z,21.51
2018-01-07T14:30:34.113Z,21.48
2018-01-07T14:33:00.071Z,21.50
2018-01-07T14:35:26.129Z,21.48
2018-01-07T14:37:52.126Z,21.49
2018-01-07T14:40:18.107Z,21.44
2018-01-07T14:42:44.067Z,21.40
2018-01-07T14:45:10.028Z,21.40
2018-01-07T14:47:35.999Z,21.40
2018-01-07T14:50:02.008Z,21.34
2018-01-07T14:52:27.989Z,21.39
2018-01-07T14:54:54.004Z,21.43
2018-01-07T14:57:19.957Z,21.33
2018-01-07T14:59:45.931Z,21.30
2018-01-07T15:02:11.912Z,21.34
2018-01-07T15:04:37.888Z,21.32
2018-01-07T15:07:03.905Z,21.40
2018-01-07T15:09:29.952Z,21.30
2018-01-07T15:11:55.923Z,21.16
2018-01-07T15:14:21.926Z,21.24
2018-01-07T15:16:47.905Z,21.21
2018-01-07T15:19:13.930Z,21.29
2018-01-07T15:21:39.931Z,21.41
2018-01-07T15:24:05.912Z,21.41
2018-01-07T15:26:31.898Z,21.30
2018-01-07T15:28:57.922Z,21.29
2018-01-07T15:31:23.910Z,21.34
2018-01-07T15:33:49.915Z,21.30
2018-01-07T15:36:15.895Z,21.26
2018-01-07T15:38:41.858Z,21.30
2018-01-07T15:41:07.820Z,21.25
2018-01-07T15:43:33.881Z,21.20
2018-01-07T15:45:59.867Z,21.19
2018-01-07T15:48:25.835Z,21.21
2018-01-07T15:50:51.809Z,21.24
2018-01-07T15:53:17.791Z,21.21
2018-01-07T15:55:43.803Z,21.24
2018-01-07T15:58:09.793Z,21.30
2018-01-07T16:00:35.803Z,21.27
2018-01-07T16:03:01.810Z,21.31
2018-01-07T16:05:27.811Z,21.36
2018-01-07T16:07:53.784Z,21.44
2018-01-07T16:10:19.820Z,21.41
2018-01-07T16:12:50.654Z,21.42
2018-01-07T16:15:16.841Z,21.46
2018-01-07T16:17:42.798Z,21.48
2018-01-07T16:20:08.770Z,21.50
2018-01-07T16:22:34.741Z,21.35
2018-01-07T16:25:00.700Z,21.43
2018-01-07T16:27:26.777Z,21.34
2018-01-07T16:29:52.787Z,21.34
2018-01-07T16:32:18.786Z,21.31
2018-01-07T16:34:44.778Z,21.29
2018-01-07T16:37:10.753Z,21.29
2018-01-07T16:39:36.729Z,21.34
2018-01-07T16:42:02.817Z,21.32
2018-01-07T16:44:28.781Z,21.37
2018-01-07T16:46:54.859Z,21.40
2018-01-07T16:49:20.919Z,21.35
2018-01-07T16:51:46.944Z,21.43
2018-01-07T16:54:12.956Z,21.48
2018-01-07T16:56:38.920Z,21.54
2018-01-07T16:59:04.986Z,21.46
2018-01-07T17:01:30.962Z,21.55
2018-01-07T17:03:57.025Z,21.51
2018-01-07T17:06:23.003Z,21.41
2018-01-07T17:08:50.074Z,21.49
2018-01-07T17:11:16.068Z,21.38
2018-01-07T17:13:42.031Z,21.27
2018-01-07T17:16:08.096Z,21.27
2018-01-07T17:18:34.113Z,21.36
2018-01-07T17:21:00.142Z,21.37
2018-01-07T17:23:26.117Z,21.36
2018-01-07T17:25:52.088Z,21.41
2018-01-07T17:28:18.124Z,21.40
2018-01-07T17:30:44.234Z,21.35
2018-01-07T17:33:10.222Z,21.44
2018-01-07T17:35:36.278Z,21.42
2018-01-07T17:38:02.194Z,21.34
2018-01-07T17:40:28.159Z,21.45
2018-01-07T17:42:54.246Z,21.45
2018-01-07T17:45:20.221Z,21.50
2018-01-07T17:47:46.231Z,21.51
2018-01-07T17:50:12.296Z,21.48
2018-01-07T17:52:38.283Z,21.47
2018-01-07T17:55:04.359Z,21.44
2018-01-07T17:57:30.358Z,21.45
2018-01-07T17:59:56.564Z,21.40
2018-01-07T18:02:22.572Z,21.36
2018-01-07T18:04:48.608Z,21.38
2018-01-07T18:07:14.864Z,21.37
2018-01-07T18:09:41.200Z,21.33
2018-01-07T18:12:07.551Z,21.38
2018-01-07T18:14:33.614Z,21.38
2018-01-07T18:16:59.583Z,21.39
2018-01-07T18:19:25.539Z,21.35
2018-01-07T18:21:51.572Z,21.40
2018-01-07T18:24:17.587Z,21.40
2018-01-07T18:26:43.579Z,21.38
2018-01-07T18:29:09.596Z,21.39
2018-01-07T18:31:35.681Z,21.44
2018-01-07T18:34:01.671Z,21.52
2018-01-07T18:36:27.698Z,21.65
2018-01-07T18:38:53.665Z,21.48
2018-01-07T18:41:19.661Z,21.57
2018-01-07T18:43:45.946Z,21.49
2018-01-07T18:46:12.125Z,21.48
2018-01-07T18:48:38.107Z,21.39
2018-01-07T18:51:04.140Z,21.41
2018-01-07T18:53:30.185Z,21.40
2018-01-07T18:55:56.179Z,21.45
2018-01-07T18:58:22.193Z,21.44
2018-01-07T19:00:48.184Z,21.40
2018-01-07T19:03:14.197Z,21.34
2018-01-07T19:05:40.177Z,21.39
2018-01-07T19:08:06.173Z,21.40
2018-01-07T19:10:32.148Z,21.40
2018-01-07T19:12:58.388Z,21.49
2018-01-07T19:15:24.399Z,21.42
2018-01-07T19:17:50.391Z,21.39
2018-01-07T19:20:16.485Z,21.42
2018-01-07T19:22:42.921Z,21.43
2018-01-07T19:25:09.388Z,21.49
2018-01-07T19:27:35.582Z,21.41
2018-01-07T19:30:01.697Z,21.38
2018-01-07T19:32:27.812Z,21.42
2018-01-07T19:34:53.833Z,21.37
2018-01-07T19:37:20.339Z,21.31
2018-01-07T19:39:46.335Z,21.49
2018-01-07T19:42:12.551Z,21.41
2018-01-07T19:44:38.612Z,21.42
2018-01-07T19:47:04.794Z,21.46
2018-01-07T19:49:31.057Z,21.51
2018-01-07T19:51:57.809Z,21.50
2018-01-07T19:54:25.444Z,21.50
2018-01-07T19:56:51.763Z,21.49
2018-01-07T19:59:18.080Z,21.49
2018-01-07T20:01:44.471Z,21.52
2018-01-07T20:04:10.535Z,21.44
2018-01-07T20:06:36.750Z,21.39
2018-01-07T20:09:03.248Z,21.44
2018-01-07T20:11:29.564Z,21.47
2018-01-07T20:13:55.853Z,21.43
2018-01-07T20:16:21.870Z,21.46
2018-01-07T20:18:48.186Z,21.45
2018-01-07T20:21:14.288Z,21.42
2018-01-07T20:23:40.280Z,21.42
2018-01-07T20:26:06.343Z,21.42
2018-01-07T20:28:32.323Z,21.40
2018-01-07T20:30:58.308Z,21.49
2018-01-07T20:33:24.583Z,21.47
2018-01-07T20:35:50.662Z,21.43
2018-01-07T20:38:16.889Z,21.44
2018-01-07T20:40:43.066Z,21.50
2018-01-07T20:43:09.164Z,21.50
2018-01-07T20:45:35.138Z,21.45
2018-01-07T20:48:01.113Z,21.41
2018-01-07T20:50:27.103Z,21.48
2018-01-07T20:52:54.253Z,21.39
2018-01-07T20:55:20.291Z,21.41
2018-01-07T20:57:46.315Z,21.44
2018-01-07T21:00:12.304Z,21.55
2018-01-07T21:02:38.345Z,21.54
2018-01-07T21:05:04.359Z,21.54
2018-01-07T21:07:31.406Z,21.44
2018-01-07T21:09:57.870Z,21.40
2018-01-07T21:12:23.883Z,21.48
2018-01-07T21:14:49.843Z,21.44
2018-01-07T21:17:15.830Z,21.48
2018-01-07T21:19:42.659Z,21.54
2018-01-07T21:22:08.738Z,21.41
2018-01-07T21:24:34.707Z,21.43
2018-01-07T21:27:01.719Z,21.35
2018-01-07T21:29:27.705Z,21.44
2018-01-07T21:31:53.818Z,21.50
2018-01-07T21:34:19.853Z,21.52
2018-01-07T21:36:45.878Z,21.53
2018-01-07T21:39:11.922Z,21.46
2018-01-07T21:41:37.907Z,21.54
2018-01-07T21:44:03.978Z,21.50
2018-01-07T21:46:29.931Z,21.65
2018-01-07T21:48:55.919Z,21.69
2018-01-07T21:51:22.970Z,21.69
2018-01-07T21:53:48.986Z,21.68
2018-01-07T21:56:14.942Z,21.66
2018-01-07T21:58:40.939Z,21.60
2018-01-07T22:01:06.894Z,21.63
2018-01-07T22:03:32.912Z,21.50
2018-01-07T22:05:58.878Z,21.52
2018-01-07T22:08:24.851Z,21.49
2018-01-07T22:10:50.832Z,21.57
2018-01-07T22:13:17.846Z,21.51
2018-01-07T22:15:43.819Z,21.52
2018-01-07T22:18:09.782Z,21.57
2018-01-07T22:20:35.749Z,21.61
2018-01-07T22:23:01.724Z,21.62
2018-01-07T22:25:27.709Z,21.59
2018-01-07T22:27:53.704Z,21.47
2018-01-07T22:30:19.690Z,21.50
2018-01-07T22:32:46.767Z,21.52
2018-01-07T22:35:13.588Z,21.64
2018-01-07T22:37:39.794Z,21.66
2018-01-07T22:40:05.815Z,21.72
2018-01-07T22:42:31.848Z,21.62
2018-01-07T22:44:58.036Z,21.64
2018-01-07T22:47:24.078Z,21.65
2018-01-07T22:49:50.726Z,21.57
2018-01-07T22:52:17.033Z,21.54
2018-01-07T22:54:43.226Z,21.53
2018-01-07T22:57:09.471Z,21.51
2018-01-07T22:59:35.643Z,21.48
2018-01-07T23:02:02.053Z,21.48
2018-01-07T23:04:28.322Z,21.55
2018-01-07T23:06:54.918Z,21.57
2018-01-07T23:09:20.928Z,21.59
2018-01-07T23:11:47.630Z,21.60
2018-01-07T23:14:13.742Z,21.68
2018-01-07T23:16:40.130Z,21.68
2018-01-07T23:19:06.408Z,21.57
2018-01-07T23:21:32.400Z,21.54
2018-01-07T23:23:58.454Z,21.56
2018-01-07T23:26:24.434Z,21.61
2018-01-07T23:28:50.412Z,21.52
2018-01-07T23:31:16.379Z,21.51
2018-01-07T23:33:42.451Z,21.53
2018-01-07T23:36:08.516Z,21.47
2018-01-07T23:38:34.502Z,21.46
2018-01-07T23:41:00.497Z,21.44
2018-01-07T23:43:26.462Z,21.47
2018-01-07T23:45:52.436Z,21.40
2018-01-07T23:48:18.406Z,21.43
2018-01-07T23:50:44.370Z,21.44
2018-01-07T23:53:10.353Z,21.40
2018-01-07T23:55:36.292Z,21.37
2018-01-07T23:58:02.249Z,21.38
